Pharr, Texas
Current Conditions -  °F | °C
As of 1:53 PM on Thursday 29 Jan 2015 (Local Time) from KMFE Reporting Station
Few Clouds Few Clouds  
Wind Chill: 78°   Ceiling: Unl
Heat Index: 79°   Visibility: 10mi
Dew Point: 59°   Wind: 16mph
Humidity: 52%   Direction: 160°SSE
Pressure: 30.13"   Gusts: NA
Location:  26.19°N, 98.18°W
Report Text: KMFE 291953Z 16014KT 10SM FEW041 26/15 A3013 RMK AO2 SLP202 T02560150
Loading
Personal Weather Stations






























Interactive Weather Map New forecast layout! Learn more

10-Day Weather Forecast

Advertisements
Track Severe Weather on mobile